Terminal Aerodrome Forecast
Issued by NWS

Current Version | Previous Version | Text Only | Print | Product List | Glossary On
Versions: 1 2 3 4 5 6 7 8 9 10 11 12
000
FTUS42 KTAE 250500
TAFECP
TAF
KECP 250520Z 2506/2606 00000KT P6SM SKC
     FM251400 25005KT P6SM SCT040 SCT250
     FM251600 24008KT P6SM VCTS SCT040CB
     FM252300 23005KT P6SM SCT250=

USA.gov is the U.S. government's official web portal to all federal, state and local government web resources and services.